.
WxDataArchive / Data Records for 2011-09-27
2011-09-26 September 2011 2011-09-28

Data Records for Tuesday, 27 September 2011

Time	Temp	Chill	HIndex	Humid	Dewpt	 Wind 	HiWind	WindDir	Rain 	Barom 
-----	----	-----	------	-----	-----	------	------	-------	-----	----- 
00:00	49.9	49.9	49.9	85	45.6	0	0	---	0.00	29.822 
00:05	49.8	49.8	49.8	86	45.8	0	0	---	0.00	29.822 
00:10	49.6	49.6	49.6	86	45.6	0	0	---	0.00	29.822 
00:15	49.6	49.6	49.6	86	45.6	0	0	---	0.00	29.826 
00:20	49.5	49.5	49.5	86	45.5	0	0	---	0.00	29.826 
00:25	49.4	49.4	49.4	86	45.4	0	0	---	0.00	29.826 
00:30	49.4	49.4	49.4	86	45.4	0	0	---	0.00	29.828 
00:35	49.2	49.2	49.2	87	45.5	0	0	---	0.00	29.828 
00:40	49.1	49.1	49.1	87	45.4	0	0	---	0.00	29.828 
00:45	49.1	49.1	49.1	87	45.4	0	0	---	0.00	29.822 
00:50	48.9	48.9	48.9	88	45.5	0	0	---	0.00	29.822 
00:55	48.9	48.9	48.9	88	45.5	0	0	---	0.00	29.822 
01:00	48.9	48.9	48.9	88	45.5	0	0	---	0.00	29.820 
01:05	48.9	48.9	48.9	88	45.5	0	0	---	0.00	29.820 
01:10	48.9	48.9	48.9	88	45.5	0	0	---	0.00	29.820 
01:15	49.1	49.1	49.1	89	46.0	0	0	---	0.00	29.818 
01:20	49.4	49.4	49.4	88	46.0	0	0	---	0.00	29.818 
01:25	49.8	49.8	49.8	88	46.4	0	1	270	0.00	29.818 
01:30	50.1	50.1	50.1	87	46.4	0	0	---	0.00	29.808 
01:35	50.5	50.5	50.5	86	46.5	0	1	270	0.00	29.808 
01:40	51.0	51.0	51.0	85	46.7	0	1	270	0.00	29.808 
01:45	51.3	51.3	51.3	84	46.6	0	0	---	0.00	29.802 
01:50	51.6	51.6	51.6	83	46.6	0	0	---	0.00	29.802 
01:55	51.9	51.9	51.9	82	46.6	0	0	---	0.00	29.802 
02:00	52.2	52.2	52.2	81	46.5	0	1	270	0.00	29.800 
02:05	52.5	52.5	52.5	80	46.5	0	1	270	0.00	29.800 
02:10	52.8	52.8	52.8	79	46.5	0	0	---	0.00	29.800 
02:15	52.9	52.9	52.9	78	46.2	0	1	270	0.00	29.799 
02:20	53.2	53.2	53.2	77	46.2	0	1	270	0.00	29.799 
02:25	53.5	53.5	53.5	77	46.5	0	1	270	0.00	29.799 
02:30	53.6	53.6	53.6	76	46.2	0	1	270	0.00	29.800 
02:35	53.8	53.8	53.8	76	46.4	0	1	270	0.00	29.800 
02:40	53.8	53.8	53.8	76	46.4	0	1	270	0.00	29.800 
02:45	53.8	53.8	53.8	76	46.4	0	1	270	0.00	29.800 
02:50	53.8	53.8	53.8	76	46.4	0	1	270	0.00	29.800 
02:55	53.8	53.8	53.8	76	46.4	0	1	270	0.00	29.800 
03:00	53.8	53.8	53.8	76	46.4	0	1	270	0.00	29.799 
03:05	53.8	53.8	53.8	76	46.4	0	1	270	0.00	29.799 
03:10	53.9	53.9	53.9	76	46.5	0	1	270	0.00	29.799 
03:15	53.9	53.9	53.9	76	46.5	0	1	270	0.00	29.796 
03:20	53.9	53.9	53.9	76	46.5	0	1	270	0.00	29.796 
03:25	54.1	54.1	54.1	76	46.7	0	1	270	0.00	29.796 
03:30	54.4	54.4	54.4	76	47.0	0	1	270	0.00	29.798 
03:35	54.5	54.5	54.5	75	46.7	0	2	315	0.00	29.798 
03:40	54.8	54.8	54.8	74	46.7	0	1	292	0.00	29.798 
03:45	55.1	55.1	55.1	74	47.0	0	3	112	0.00	29.798 
03:50	55.3	55.3	55.3	73	46.8	0	3	90	0.00	29.798 
03:55	55.6	55.6	55.6	72	46.7	0	2	90	0.00	29.798 
04:00	55.7	55.7	55.7	72	46.8	0	1	90	0.00	29.798 
04:05	55.7	55.7	55.7	72	46.8	0	1	90	0.00	29.798 
04:10	55.7	55.7	55.7	73	47.2	0	1	90	0.00	29.798 
04:15	55.7	55.7	55.7	73	47.2	0	0	---	0.00	29.796 
04:20	55.7	55.7	55.7	73	47.2	0	1	90	0.00	29.796 
04:25	55.7	55.7	55.7	73	47.2	0	1	90	0.00	29.796 
04:30	55.7	55.7	55.7	73	47.2	0	2	248	0.00	29.796 
04:35	55.7	55.7	55.7	73	47.2	0	3	248	0.00	29.796 
04:40	55.7	55.7	55.7	74	47.5	0	1	248	0.00	29.796 
04:45	55.7	55.7	55.7	74	47.5	0	0	---	0.00	29.796 
04:50	55.6	55.6	55.6	74	47.4	0	2	248	0.00	29.796 
04:55	55.6	55.6	55.6	74	47.4	0	1	248	0.00	29.796 
05:00	55.6	55.6	55.6	75	47.8	0	0	---	0.00	29.797 
05:05	55.6	55.6	55.6	75	47.8	0	2	248	0.00	29.797 
05:10	55.4	55.4	55.4	76	48.0	0	1	248	0.00	29.797 
05:15	55.4	55.4	55.4	77	48.3	0	1	248	0.00	29.800 
05:20	55.3	55.3	55.3	77	48.2	0	1	248	0.00	29.800 
05:25	55.3	55.3	55.3	78	48.6	0	1	248	0.00	29.800 
05:30	55.1	55.1	55.1	78	48.4	0	0	---	0.00	29.791 
05:35	55.0	55.0	55.0	79	48.6	0	0	---	0.00	29.791 
05:40	55.0	55.0	55.0	79	48.6	0	1	248	0.00	29.791 
05:45	55.0	55.0	55.0	80	48.9	0	0	---	0.00	29.792 
05:50	54.8	54.8	54.8	80	48.7	0	1	248	0.00	29.792 
05:55	54.7	54.7	54.7	81	49.0	0	1	248	0.00	29.792 
06:00	54.5	54.5	54.5	81	48.8	0	2	248	0.00	29.787 
06:05	53.9	53.9	53.9	82	48.5	0	2	248	0.00	29.787 
06:10	53.3	53.3	53.3	84	48.6	1	2	248	0.00	29.787 
06:15	52.9	52.9	52.9	85	48.5	0	2	248	0.00	29.795 
06:20	52.6	52.6	52.6	86	48.5	0	1	248	0.00	29.795 
06:25	52.5	52.5	52.5	86	48.4	1	2	248	0.00	29.795 
06:30	52.3	52.3	52.3	86	48.2	1	4	248	0.00	29.792 
06:35	52.2	52.2	52.2	86	48.1	1	4	248	0.00	29.792 
06:40	52.2	52.2	52.2	86	48.1	1	3	68	0.00	29.792 
06:45	52.2	52.2	52.2	86	48.1	1	4	68	0.00	29.797 
06:50	52.0	52.0	52.0	87	48.3	1	4	68	0.00	29.797 
06:55	52.0	52.0	52.0	87	48.3	0	3	68	0.00	29.797 
07:00	52.0	52.0	52.0	87	48.3	0	2	135	0.00	29.802 
07:05	52.2	52.2	52.2	87	48.4	0	2	135	0.00	29.802 
07:10	52.2	52.2	52.2	87	48.4	1	3	45	0.00	29.802 
07:15	52.2	52.2	52.2	88	48.8	0	2	45	0.01	29.805 
07:20	52.2	52.2	52.2	88	48.8	0	3	45	0.00	29.805 
07:25	52.0	52.0	52.0	89	48.9	1	3	45	0.00	29.805 
07:30	52.0	52.0	52.0	89	48.9	1	3	45	0.00	29.797 
07:35	51.9	51.9	51.9	90	49.1	1	2	45	0.00	29.797 
07:40	51.9	51.9	51.9	90	49.1	0	3	45	0.00	29.797 
07:45	51.9	51.9	51.9	90	49.1	0	3	45	0.00	29.798 
07:50	51.9	51.9	51.9	90	49.1	1	4	45	0.00	29.798 
07:55	51.9	51.9	51.9	91	49.4	1	5	68	0.00	29.798 
08:00	51.9	51.9	51.9	91	49.4	2	7	90	0.00	29.786 
08:05	51.9	51.9	51.9	91	49.4	2	5	90	0.00	29.786 
08:10	51.9	51.9	51.9	91	49.4	2	5	90	0.00	29.786 
08:15	52.0	52.0	52.0	91	49.5	1	4	68	0.00	29.793 
08:20	52.0	52.0	52.0	91	49.5	1	4	112	0.00	29.793 
08:25	52.2	52.2	52.2	91	49.7	2	5	112	0.00	29.793 
08:30	52.2	52.2	52.2	91	49.7	2	7	90	0.00	29.791 
08:35	52.3	52.3	52.3	90	49.5	1	4	112	0.00	29.791 
08:40	52.3	52.3	52.3	90	49.5	2	5	90	0.00	29.791 
08:45	52.5	52.5	52.5	90	49.7	1	6	90	0.00	29.791 
08:50	52.6	52.6	52.6	89	49.4	2	6	90	0.00	29.791 
08:55	52.8	52.8	52.8	89	49.6	1	5	68	0.00	29.791 
09:00	52.8	52.8	52.8	89	49.6	1	5	90	0.00	29.795 
09:05	52.9	52.9	52.9	89	49.7	2	5	90	0.00	29.795 
09:10	52.9	52.9	52.9	90	50.0	2	6	68	0.01	29.795 
09:15	52.9	52.9	52.9	90	50.0	2	5	90	0.00	29.792 
09:20	52.9	52.9	52.9	91	50.3	2	10	68	0.00	29.792 
09:25	52.9	52.9	52.9	91	50.3	1	5	90	0.00	29.792 
09:30	53.1	53.1	53.1	91	50.5	2	7	90	0.01	29.788 
09:35	53.1	53.1	53.1	92	50.8	1	4	68	0.00	29.788 
09:40	53.1	53.1	53.1	92	50.8	2	5	90	0.00	29.788 
09:45	53.1	53.1	53.1	92	50.8	1	6	90	0.00	29.780 
09:50	53.1	53.1	53.1	92	50.8	1	5	90	0.00	29.780 
09:55	53.2	53.2	53.2	92	50.9	0	3	90	0.00	29.780 
10:00	53.2	53.2	53.2	92	50.9	2	6	90	0.00	29.780 
10:05	53.2	53.2	53.2	92	50.9	1	5	90	0.00	29.780 
10:10	53.2	53.2	53.2	92	50.9	0	2	158	0.00	29.780 
10:15	53.2	53.2	53.2	92	50.9	1	3	90	0.00	29.797 
10:20	53.2	53.2	53.2	92	50.9	0	4	90	0.00	29.797 
10:25	53.2	53.2	53.2	92	50.9	0	3	68	0.00	29.797 
10:30	53.3	53.3	53.3	92	51.0	1	4	68	0.02	29.796 
10:35	53.3	53.3	53.3	92	51.0	1	6	90	0.01	29.796 
10:40	53.5	53.5	53.5	93	51.5	1	3	90	0.00	29.796 
10:45	53.5	53.5	53.5	93	51.5	0	2	270	0.00	29.796 
10:50	53.5	53.5	53.5	93	51.5	0	3	270	0.01	29.796 
10:55	53.5	53.5	53.5	93	51.5	1	3	22	0.02	29.796 
11:00	53.5	53.5	53.5	93	51.5	1	4	112	0.01	29.794 
11:05	53.6	53.6	53.6	93	51.6	0	1	112	0.02	29.794 
11:10	53.6	53.6	53.6	93	51.6	1	3	112	0.00	29.794 
11:15	53.8	53.8	53.8	94	52.1	1	4	112	0.01	29.795 
11:20	53.9	53.9	53.9	94	52.2	1	4	90	0.00	29.795 
11:25	53.9	53.9	53.9	94	52.2	1	5	90	0.00	29.795 
11:30	53.9	53.9	53.9	94	52.2	2	5	90	0.00	29.796 
11:35	53.9	53.9	53.9	94	52.2	1	4	90	0.00	29.796 
11:40	54.1	54.1	54.1	94	52.4	1	4	90	0.00	29.796 
11:45	54.1	54.1	54.1	94	52.4	1	4	90	0.00	29.795 
11:50	54.2	54.2	54.2	94	52.5	2	6	90	0.00	29.795 
11:55	54.4	54.4	54.4	94	52.7	2	5	90	0.00	29.795 
12:00	54.5	54.5	54.5	93	52.5	2	4	90	0.00	29.794 
12:05	54.7	54.7	54.7	93	52.7	1	4	90	0.00	29.794 
12:10	54.7	54.7	54.7	93	52.7	2	5	90	0.00	29.794 
12:15	54.8	54.8	54.8	93	52.8	2	5	90	0.00	29.796 
12:20	55.0	55.0	55.0	93	53.0	1	4	112	0.00	29.796 
12:25	55.1	55.1	55.1	93	53.1	2	7	90	0.00	29.796 
12:30	55.1	55.1	55.1	92	52.8	1	4	112	0.00	29.795 
12:35	55.1	55.1	55.1	92	52.8	2	6	90	0.00	29.795 
12:40	55.3	55.3	55.3	92	53.0	1	4	90	0.00	29.795 
12:45	55.4	55.4	55.4	92	53.1	2	7	68	0.00	29.790 
12:50	56.0	56.0	56.0	92	53.7	1	4	112	0.00	29.790 
12:55	56.9	56.9	56.9	92	54.6	2	7	112	0.00	29.790 
13:00	57.5	57.5	57.5	91	54.9	1	4	68	0.00	29.784 
13:05	58.0	58.0	58.0	88	54.5	2	6	90	0.00	29.784 
13:10	58.1	58.1	58.1	87	54.2	1	5	90	0.00	29.784 
13:15	58.4	58.4	58.4	86	54.2	1	5	112	0.00	29.776 
13:20	58.7	58.7	58.7	84	53.9	1	3	68	0.00	29.776 
13:25	58.7	58.7	58.7	83	53.5	1	6	90	0.00	29.776 
13:30	58.7	58.7	58.7	81	52.9	2	5	112	0.00	29.773 
13:35	58.7	58.7	58.7	81	52.9	1	4	90	0.00	29.773 
13:40	58.9	58.9	58.9	79	52.4	2	5	90	0.00	29.773 
13:45	58.9	58.9	58.9	77	51.7	2	6	90	0.00	29.775 
13:50	59.2	59.2	59.2	77	52.0	1	3	68	0.00	29.775 
13:55	59.3	59.3	59.3	76	51.7	2	6	90	0.00	29.775 
14:00	59.6	59.6	59.6	76	52.0	1	6	112	0.00	29.770 
14:05	59.8	59.8	59.8	77	52.6	1	5	112	0.00	29.770 
14:10	59.9	59.9	59.9	75	52.0	1	5	112	0.00	29.770 
14:15	60.4	60.4	60.4	75	52.4	1	4	90	0.00	29.758 
14:20	60.9	60.9	60.9	76	53.3	1	4	68	0.00	29.758 
14:25	61.5	61.5	61.5	75	53.5	1	5	90	0.00	29.758 
14:30	62.3	62.3	62.3	72	53.2	2	6	90	0.00	29.756 
14:35	62.7	62.7	62.7	71	53.2	2	5	112	0.00	29.756 
14:40	63.1	63.1	63.1	71	53.5	2	6	90	0.00	29.756 
14:45	63.4	63.4	63.4	70	53.4	1	4	90	0.00	29.754 
14:50	63.7	63.7	63.7	67	52.5	2	6	90	0.00	29.754 
14:55	63.5	63.5	63.5	69	53.1	1	4	112	0.00	29.754 
15:00	63.2	63.2	63.2	68	52.5	2	6	0	0.00	29.745 
15:05	63.2	63.2	63.2	68	52.5	2	5	90	0.00	29.745 
15:10	63.2	63.2	63.2	69	52.9	1	4	90	0.00	29.745 
15:15	63.1	63.1	63.1	68	52.4	2	5	90	0.00	29.740 
15:20	63.1	63.1	63.1	67	52.0	1	7	90	0.00	29.740 
15:25	63.1	63.1	63.1	70	53.2	0	3	90	0.00	29.740 
15:30	62.7	62.7	62.7	69	52.4	1	4	90	0.00	29.733 
15:35	62.4	62.4	62.4	69	52.1	2	6	68	0.00	29.733 
15:40	62.3	62.3	62.3	70	52.4	1	5	112	0.00	29.733 
15:45	62.1	62.1	62.1	69	51.8	1	7	90	0.00	29.737 
15:50	62.0	62.0	62.0	73	53.2	1	3	292	0.00	29.737 
15:55	60.5	60.5	60.5	75	52.5	1	4	270	0.00	29.737 
16:00	59.3	59.3	59.3	78	52.4	0	2	270	0.00	29.748 
16:05	58.0	58.0	58.0	82	52.5	2	4	270	0.01	29.748 
16:10	56.9	56.9	56.9	85	52.4	1	3	270	0.04	29.748 
16:15	56.3	56.3	56.3	87	52.5	1	3	270	0.03	29.759 
16:20	55.7	55.7	55.7	88	52.2	0	3	270	0.07	29.759 
16:25	55.4	55.4	55.4	89	52.2	1	3	270	0.04	29.759 
16:30	55.1	55.1	55.1	90	52.2	1	3	270	0.02	29.759 
16:35	55.0	55.0	55.0	91	52.4	0	2	270	0.04	29.759 
16:40	54.8	54.8	54.8	92	52.5	0	1	270	0.01	29.759 
16:45	54.7	54.7	54.7	92	52.4	0	1	270	0.02	29.758 
16:50	54.5	54.5	54.5	92	52.2	0	0	---	0.01	29.758 
16:55	54.5	54.5	54.5	92	52.2	0	0	---	0.01	29.758 
17:00	54.5	54.5	54.5	93	52.5	0	0	---	0.01	29.749 
17:05	54.5	54.5	54.5	93	52.5	0	0	---	0.01	29.749 
17:10	54.7	54.7	54.7	93	52.7	0	0	---	0.00	29.749 
17:15	55.0	55.0	55.0	94	53.3	0	0	---	0.00	29.749 
17:20	55.1	55.1	55.1	94	53.4	0	1	270	0.00	29.749 
17:25	55.3	55.3	55.3	94	53.6	0	1	270	0.00	29.749 
17:30	55.3	55.3	55.3	94	53.6	0	0	---	0.00	29.757 
17:35	55.4	55.4	55.4	94	53.7	0	1	270	0.00	29.757 
17:40	55.6	55.6	55.6	94	53.9	0	1	270	0.00	29.757 
17:45	55.7	55.7	55.7	94	54.0	0	0	---	0.00	29.760 
17:50	56.2	56.2	56.2	95	54.8	0	0	---	0.00	29.760 
17:55	56.5	56.5	56.5	95	55.1	0	1	270	0.00	29.760 
18:00	56.6	56.6	56.6	95	55.2	0	0	---	0.00	29.759 
18:05	56.5	56.5	56.5	94	54.8	0	0	---	0.00	29.759 
18:10	56.2	56.2	56.2	94	54.5	0	0	---	0.00	29.759 
18:15	56.2	56.2	56.2	94	54.5	0	0	---	0.00	29.767 
18:20	56.2	56.2	56.2	94	54.5	0	0	---	0.00	29.767 
18:25	56.3	56.3	56.3	95	54.9	0	0	---	0.00	29.767 
18:30	56.5	56.5	56.5	94	54.8	0	0	---	0.00	29.775 
18:35	56.5	56.5	56.5	94	54.8	0	0	---	0.00	29.775 
18:40	56.3	56.3	56.3	94	54.6	0	0	---	0.00	29.775 
18:45	56.3	56.3	56.3	94	54.6	0	0	---	0.00	29.776 
18:50	56.3	56.3	56.3	94	54.6	0	0	---	0.00	29.776 
18:55	56.3	56.3	56.3	94	54.6	0	0	---	0.00	29.776 
19:00	56.5	56.5	56.5	95	55.1	0	0	---	0.00	29.778 
19:05	56.5	56.5	56.5	95	55.1	0	0	---	0.00	29.778 
19:10	56.5	56.5	56.5	95	55.1	0	0	---	0.00	29.778 
19:15	56.5	56.5	56.5	95	55.1	0	0	---	0.00	29.786 
19:20	56.5	56.5	56.5	95	55.1	0	0	---	0.00	29.786 
19:25	56.5	56.5	56.5	95	55.1	0	0	---	0.00	29.786 
19:30	56.5	56.5	56.5	95	55.1	0	0	---	0.00	29.792 
19:35	56.5	56.5	56.5	95	55.1	0	0	---	0.00	29.792 
19:40	56.5	56.5	56.5	95	55.1	0	1	270	0.00	29.792 
19:45	56.5	56.5	56.5	95	55.1	0	0	---	0.00	29.793 
19:50	56.5	56.5	56.5	95	55.1	0	0	---	0.00	29.793 
19:55	56.5	56.5	56.5	95	55.1	0	0	---	0.00	29.793 
20:00	56.3	56.3	56.3	95	54.9	0	0	---	0.00	29.794 
20:05	56.3	56.3	56.3	95	54.9	0	0	---	0.00	29.794 
20:10	56.2	56.2	56.2	95	54.8	0	0	---	0.00	29.794 
20:15	56.2	56.2	56.2	95	54.8	0	0	---	0.00	29.794 
20:20	56.0	56.0	56.0	95	54.6	0	0	---	0.00	29.794 
20:25	56.0	56.0	56.0	95	54.6	0	0	---	0.00	29.794 
20:30	55.9	55.9	55.9	95	54.5	0	0	---	0.00	29.794 
20:35	55.7	55.7	55.7	95	54.3	0	0	---	0.00	29.794 
20:40	55.6	55.6	55.6	95	54.2	0	0	---	0.00	29.794 
20:45	55.4	55.4	55.4	95	54.0	0	0	---	0.00	29.794 
20:50	55.1	55.1	55.1	95	53.7	0	0	---	0.00	29.794 
20:55	55.0	55.0	55.0	95	53.6	0	0	---	0.00	29.794 
21:00	54.8	54.8	54.8	95	53.4	0	0	---	0.00	29.794 
21:05	54.7	54.7	54.7	95	53.3	0	0	---	0.00	29.794 
21:10	54.7	54.7	54.7	95	53.3	0	0	---	0.00	29.794 
21:15	54.5	54.5	54.5	95	53.1	0	0	---	0.00	29.799 
21:20	54.5	54.5	54.5	95	53.1	0	0	---	0.00	29.799 
21:25	54.4	54.4	54.4	95	53.0	0	0	---	0.00	29.799 
21:30	54.4	54.4	54.4	95	53.0	0	1	270	0.00	29.807 
21:35	54.1	54.1	54.1	95	52.7	0	0	---	0.00	29.807 
21:40	54.1	54.1	54.1	95	52.7	0	1	270	0.00	29.807 
21:45	54.1	54.1	54.1	95	52.7	0	1	270	0.00	29.806 
21:50	53.9	53.9	53.9	95	52.5	0	0	---	0.00	29.806 
21:55	54.1	54.1	54.1	95	52.7	0	0	---	0.00	29.806 
22:00	54.1	54.1	54.1	95	52.7	0	0	---	0.00	29.807 
22:05	53.9	53.9	53.9	95	52.5	0	0	---	0.00	29.807 
22:10	53.9	53.9	53.9	95	52.5	0	0	---	0.00	29.807 
22:15	54.1	54.1	54.1	95	52.7	0	1	270	0.00	29.806 
22:20	54.1	54.1	54.1	95	52.7	0	0	---	0.00	29.806 
22:25	54.1	54.1	54.1	95	52.7	0	0	---	0.00	29.806 
22:30	54.1	54.1	54.1	95	52.7	0	1	270	0.00	29.807 
22:35	54.1	54.1	54.1	95	52.7	0	1	270	0.00	29.807 
22:40	54.1	54.1	54.1	95	52.7	0	0	---	0.00	29.807 
22:45	54.1	54.1	54.1	94	52.4	0	0	---	0.00	29.803 
22:50	54.2	54.2	54.2	94	52.5	0	0	---	0.00	29.803 
22:55	54.2	54.2	54.2	94	52.5	0	1	270	0.00	29.803 
23:00	54.2	54.2	54.2	94	52.5	0	0	---	0.00	29.801 
23:05	54.2	54.2	54.2	94	52.5	0	0	---	0.00	29.801 
23:10	54.2	54.2	54.2	94	52.5	0	0	---	0.00	29.801 
23:15	54.4	54.4	54.4	94	52.7	0	0	---	0.00	29.800 
23:20	54.4	54.4	54.4	94	52.7	0	0	---	0.00	29.800 
23:25	54.4	54.4	54.4	94	52.7	0	0	---	0.00	29.800 
23:30	54.5	54.5	54.5	94	52.8	0	0	---	0.00	29.794 
23:35	54.5	54.5	54.5	94	52.8	0	1	270	0.00	29.794 
23:40	54.5	54.5	54.5	94	52.8	0	0	---	0.00	29.794 
23:45	54.5	54.5	54.5	94	52.8	0	1	270	0.00	29.792 
23:50	54.5	54.5	54.5	94	52.8	0	1	270	0.00	29.792 
23:55	54.4	54.4	54.4	93	52.4	0	1	270	0.00	29.792 

CoCoRaHS
IN-AL-39
A2 Web Hosting
Creative Commons License
GoDaddy
search engine by freefind advanced

loaded 2018-11-17 18:43:00 • last modified 2010-11-18 10:43:29
Privacy PolicyDisclaimer
• wx.awcolley.com is powered by PmWiki v.2002016 •
• all content (unless otherwise noted) © 2018 A W Colley